Time;durP1;ratioP1;P1;durP2;ratioP2;P2;SDS_P1;SDS_P2;PMS_P1;PMS_P2;Temp;Humidity;BMP_temperature;BMP_pressure;BME280_temperature;BME280_humidity;BME280_pressure;Samples;Min_cycle;Max_cycle;Signal;HPM_P1;HPM_P2
2024/01/09 00:01:45;;;;;;;5.82;3.47;;;-1.00;99.90;;;;;;5023495;28;20221;-44
2024/01/09 00:04:11;;;;;;;10.10;3.60;;;-1.10;99.90;;;;;;5023033;28;20365;-45
2024/01/09 00:06:37;;;;;;;6.97;3.70;;;-1.10;99.90;;;;;;5023404;28;20203;-46
2024/01/09 00:09:03;;;;;;;6.40;3.60;;;-1.10;99.90;;;;;;5022873;28;20192;-45
2024/01/09 00:11:29;;;;;;;11.55;4.05;;;-1.10;99.90;;;;;;5018401;28;20253;-45
2024/01/09 00:13:56;;;;;;;5.93;3.50;;;-1.10;99.90;;;;;;5022593;28;20218;-47
2024/01/09 00:16:22;;;;;;;7.47;3.78;;;-1.10;99.90;;;;;;5023275;28;20218;-44
2024/01/09 00:18:53;;;;;;;7.40;3.93;;;-1.10;99.90;;;;;;5023072;28;20214;-46
2024/01/09 00:21:19;;;;;;;8.50;4.05;;;-1.10;99.90;;;;;;5023155;28;20200;-44
2024/01/09 00:23:45;;;;;;;6.15;4.00;;;-1.20;99.90;;;;;;5018744;28;20195;-46
2024/01/09 00:26:12;;;;;;;6.80;3.80;;;-1.20;99.90;;;;;;5022912;28;20192;-49
2024/01/09 00:28:38;;;;;;;6.43;3.85;;;-1.20;99.90;;;;;;5022658;28;20195;-51
2024/01/09 00:31:04;;;;;;;8.93;3.90;;;-1.20;99.90;;;;;;5022832;28;20192;-44
2024/01/09 00:33:30;;;;;;;6.97;3.70;;;-1.20;99.90;;;;;;5022615;28;20286;-42
2024/01/09 00:35:56;;;;;;;7.47;3.90;;;-1.20;99.90;;;;;;5022389;28;20216;-46
2024/01/09 00:38:21;;;;;;;7.20;3.90;;;-1.20;99.90;;;;;;5022569;28;20247;-49
2024/01/09 00:40:48;;;;;;;7.47;3.57;;;-1.30;99.90;;;;;;4999949;28;20190;-46
2024/01/09 00:43:14;;;;;;;8.45;4.00;;;-1.30;99.90;;;;;;5022913;28;20271;-47
2024/01/09 00:45:39;;;;;;;7.10;3.60;;;-1.30;99.90;;;;;;5022542;28;20284;-51
2024/01/09 00:48:06;;;;;;;10.90;3.72;;;-1.30;99.90;;;;;;5022525;28;20242;-47
2024/01/09 00:50:32;;;;;;;7.28;4.40;;;-1.30;99.90;;;;;;5021776;28;20231;-47
2024/01/09 00:52:57;;;;;;;5.97;3.58;;;-1.30;99.90;;;;;;5022418;28;20743;-47
2024/01/09 00:55:23;;;;;;;8.20;3.40;;;-1.30;99.90;;;;;;5022407;28;20601;-47
2024/01/09 00:57:49;;;;;;;6.85;3.97;;;-1.30;99.90;;;;;;5022326;28;20211;-51
2024/01/09 01:00:16;;;;;;;6.80;4.00;;;-1.40;99.90;;;;;;5022109;28;20246;-51
2024/01/09 01:02:42;;;;;;;5.97;3.70;;;-1.40;99.90;;;;;;5022369;28;20188;-52
2024/01/09 01:05:08;;;;;;;5.40;3.40;;;-1.40;99.90;;;;;;5022287;28;20187;-45
2024/01/09 01:07:33;;;;;;;8.80;4.07;;;-1.40;99.90;;;;;;5016528;28;20287;-54
2024/01/09 01:09:59;;;;;;;6.93;3.78;;;-1.40;99.90;;;;;;5022107;28;20188;-50
2024/01/09 01:12:25;;;;;;;6.57;3.53;;;-1.40;99.90;;;;;;5022056;28;20199;-51
2024/01/09 01:14:51;;;;;;;8.13;3.80;;;-1.50;99.90;;;;;;5021607;28;20211;-48
2024/01/09 01:17:17;;;;;;;5.28;3.47;;;-1.50;99.90;;;;;;5015088;28;20180;-46
2024/01/09 01:19:43;;;;;;;12.73;4.32;;;-1.50;99.90;;;;;;5022309;28;20203;-42
2024/01/09 01:22:08;;;;;;;6.97;3.65;;;-1.50;99.90;;;;;;5022117;28;20184;-53
2024/01/09 01:24:34;;;;;;;7.60;4.17;;;-1.50;99.90;;;;;;5021806;28;20275;-45
2024/01/09 01:27:00;;;;;;;7.60;3.13;;;-1.50;99.90;;;;;;5021626;28;20647;-46
2024/01/09 01:29:26;;;;;;;6.67;3.97;;;-1.50;99.90;;;;;;5015817;28;21430;-49
2024/01/09 01:31:52;;;;;;;7.87;3.90;;;-1.60;99.90;;;;;;5021525;28;20709;-47
2024/01/09 01:34:18;;;;;;;6.93;4.00;;;-1.60;99.90;;;;;;5021886;28;20192;-49
2024/01/09 01:36:44;;;;;;;7.80;3.92;;;-1.60;99.90;;;;;;5021455;28;20671;-44
2024/01/09 01:39:10;;;;;;;7.65;4.20;;;-1.60;99.90;;;;;;5021454;28;20211;-47
2024/01/09 01:41:36;;;;;;;4.55;2.85;;;-1.60;99.90;;;;;;5021692;28;20232;-48
2024/01/09 01:44:17;;;;;;;7.90;4.20;;;-1.60;99.90;;;;;;5021791;28;20283;-48
2024/01/09 01:46:45;;;;;;;8.67;3.83;;;-1.70;99.90;;;;;;5021560;28;20180;-47
2024/01/09 01:49:17;;;;;;;10.27;4.50;;;-1.70;99.90;;;;;;5021355;28;20668;-41
2024/01/09 01:51:45;;;;;;;7.50;3.63;;;-1.70;99.90;;;;;;5021206;28;20191;-44
2024/01/09 01:54:12;;;;;;;6.53;3.67;;;-1.70;99.90;;;;;;5018404;28;20196;-51
2024/01/09 01:56:40;;;;;;;8.83;4.03;;;-1.70;99.90;;;;;;5021470;28;20184;-48
2024/01/09 01:59:08;;;;;;;8.37;3.63;;;-1.70;99.90;;;;;;5020897;28;20349;-50
2024/01/09 02:01:34;;;;;;;6.07;3.73;;;-1.70;99.90;;;;;;5021670;28;20188;-49
2024/01/09 02:04:01;;;;;;;10.07;4.17;;;-1.70;99.90;;;;;;5021121;28;20184;-41
2024/01/09 02:06:26;;;;;;;6.80;3.60;;;-1.70;99.90;;;;;;5021454;28;20656;-51
2024/01/09 02:08:54;;;;;;;7.27;4.20;;;-1.80;99.90;;;;;;5021020;28;20200;-47
2024/01/09 02:11:21;;;;;;;7.97;4.00;;;-1.80;99.90;;;;;;5021030;28;20192;-51
2024/01/09 02:13:47;;;;;;;10.23;3.77;;;-1.80;99.90;;;;;;5021186;28;20205;-48
2024/01/09 02:16:12;;;;;;;5.57;3.75;;;-1.80;99.90;;;;;;5021395;28;20187;-50
2024/01/09 02:18:38;;;;;;;5.57;3.37;;;-1.80;99.90;;;;;;5021394;28;20679;-46
2024/01/09 02:21:04;;;;;;;6.20;3.80;;;-1.80;99.90;;;;;;5020787;28;21084;-42
2024/01/09 02:23:30;;;;;;;8.97;4.10;;;-1.90;99.90;;;;;;5021364;28;20207;-42
2024/01/09 02:25:57;;;;;;;5.73;3.40;;;-1.90;99.90;;;;;;5021481;28;20233;-49
2024/01/09 02:28:27;;;;;;;7.97;4.33;;;-1.80;99.90;;;;;;5024316;28;20191;-43
2024/01/09 02:30:55;;;;;;;7.50;3.60;;;-1.90;99.90;;;;;;5017460;28;20579;-43
2024/01/09 02:33:21;;;;;;;7.23;4.00;;;-1.90;99.90;;;;;;5021968;28;20345;-49
2024/01/09 02:35:47;;;;;;;5.30;3.50;;;-1.90;99.90;;;;;;5025021;28;20192;-51
2024/01/09 02:38:12;;;;;;;7.63;3.50;;;-1.90;99.90;;;;;;5024599;28;20215;-45
2024/01/09 02:40:38;;;;;;;5.85;3.47;;;-1.90;99.90;;;;;;5024471;28;20230;-48
2024/01/09 02:43:05;;;;;;;7.13;3.43;;;-2.00;99.90;;;;;;5024691;28;20632;-46
2024/01/09 02:45:31;;;;;;;6.97;3.90;;;-1.90;99.90;;;;;;5025109;28;20200;-48
2024/01/09 02:47:56;;;;;;;6.70;3.90;;;-1.90;99.90;;;;;;5024715;28;20194;-47
2024/01/09 02:50:22;;;;;;;8.43;3.73;;;-1.90;99.90;;;;;;5024399;28;20223;-44
2024/01/09 02:52:48;;;;;;;7.97;3.73;;;-2.00;99.90;;;;;;5024805;28;20609;-46
2024/01/09 02:55:14;;;;;;;6.20;3.40;;;-2.00;99.90;;;;;;5024830;28;20196;-43
2024/01/09 02:57:40;;;;;;;7.57;3.50;;;-2.00;99.90;;;;;;5020409;28;20192;-45
2024/01/09 03:00:08;;;;;;;5.80;3.90;;;-2.00;99.90;;;;;;5018295;28;20196;-46
2024/01/09 03:02:34;;;;;;;7.53;3.97;;;-2.00;99.90;;;;;;5021443;28;20219;-48
2024/01/09 03:05:00;;;;;;;7.10;3.80;;;-2.00;99.90;;;;;;5024655;28;20261;-45
2024/01/09 03:07:26;;;;;;;8.23;3.47;;;-2.00;99.90;;;;;;5023790;28;20502;-51
2024/01/09 03:09:52;;;;;;;7.40;3.83;;;-2.10;99.90;;;;;;5024495;28;20195;-49
2024/01/09 03:12:18;;;;;;;8.03;4.00;;;-2.10;99.90;;;;;;5020097;28;20184;-47
2024/01/09 03:14:44;;;;;;;7.50;4.10;;;-2.10;99.90;;;;;;5024196;28;21307;-57
2024/01/09 03:17:11;;;;;;;7.43;3.63;;;-2.10;99.90;;;;;;5024556;28;20214;-46
2024/01/09 03:19:37;;;;;;;5.37;3.17;;;-2.10;99.90;;;;;;5023933;28;20212;-47
2024/01/09 03:22:03;;;;;;;6.10;3.57;;;-2.10;99.90;;;;;;5024231;28;20309;-43
2024/01/09 03:24:29;;;;;;;5.77;3.33;;;-2.10;99.90;;;;;;5024066;28;20326;-47
2024/01/09 03:26:56;;;;;;;5.30;2.93;;;-2.10;99.90;;;;;;5024417;28;20758;-51
2024/01/09 03:29:22;;;;;;;6.47;3.60;;;-2.10;99.90;;;;;;5023837;28;20184;-44
2024/01/09 03:31:47;;;;;;;7.17;3.63;;;-2.10;99.90;;;;;;5023972;28;20622;-51
2024/01/09 03:34:13;;;;;;;6.40;3.73;;;-2.20;99.90;;;;;;5024026;28;20196;-48
2024/01/09 03:36:39;;;;;;;6.33;3.47;;;-2.20;99.90;;;;;;5024199;28;20214;-47
2024/01/09 03:39:08;;;;;;;6.80;4.43;;;-2.20;99.90;;;;;;5023031;28;20265;-47
2024/01/09 03:41:34;;;;;;;9.10;3.93;;;-2.20;99.90;;;;;;5019732;28;20192;-47
2024/01/09 03:44:00;;;;;;;8.27;3.90;;;-2.20;99.90;;;;;;5017959;28;20722;-43
2024/01/09 03:46:26;;;;;;;6.17;3.80;;;-2.20;99.90;;;;;;5018078;28;20651;-48
2024/01/09 03:48:52;;;;;;;5.00;3.23;;;-2.30;99.90;;;;;;5017168;28;20758;-45
2024/01/09 03:51:18;;;;;;;6.37;3.90;;;-2.20;99.90;;;;;;5023469;28;20235;-40
2024/01/09 03:53:43;;;;;;;5.37;3.03;;;-2.20;99.90;;;;;;5023469;28;20192;-46
2024/01/09 03:56:09;;;;;;;4.80;3.23;;;-2.30;99.90;;;;;;5023700;28;20249;-48
2024/01/09 03:58:35;;;;;;;8.63;4.10;;;-2.30;99.90;;;;;;5023616;28;20219;-43
2024/01/09 04:01:02;;;;;;;8.25;4.03;;;-2.30;99.90;;;;;;5017897;28;20180;-45
2024/01/09 04:03:28;;;;;;;4.07;3.17;;;-2.30;99.90;;;;;;5023291;28;20220;-47
2024/01/09 04:05:54;;;;;;;7.00;3.60;;;-2.30;99.90;;;;;;5023509;28;20199;-46
2024/01/09 04:08:19;;;;;;;6.67;4.07;;;-2.30;99.90;;;;;;5023614;28;20184;-45
2024/01/09 04:10:45;;;;;;;5.93;3.23;;;-2.30;99.90;;;;;;5023387;28;21284;-49
2024/01/09 04:13:11;;;;;;;6.37;3.30;;;-2.40;99.90;;;;;;5023357;28;20200;-54
2024/01/09 04:15:38;;;;;;;6.20;3.33;;;-2.40;99.90;;;;;;5023261;28;20186;-50
2024/01/09 04:18:04;;;;;;;6.90;3.57;;;-2.40;99.90;;;;;;5023069;28;20212;-48
2024/01/09 04:20:30;;;;;;;5.83;3.70;;;-2.40;99.90;;;;;;5023197;28;20298;-48
2024/01/09 04:22:56;;;;;;;6.70;3.70;;;-2.40;99.90;;;;;;5023408;28;20271;-48
2024/01/09 04:25:22;;;;;;;9.48;4.20;;;-2.40;99.90;;;;;;5022965;28;20186;-44
2024/01/09 04:27:48;;;;;;;5.70;3.20;;;-2.40;99.90;;;;;;5022942;28;20192;-42
2024/01/09 04:30:14;;;;;;;7.47;3.83;;;-2.40;99.90;;;;;;5022726;28;20210;-45
2024/01/09 04:32:39;;;;;;;8.60;3.73;;;-2.40;99.90;;;;;;5022661;28;21148;-44
2024/01/09 04:35:06;;;;;;;7.10;3.27;;;-2.50;99.90;;;;;;5022655;28;20249;-45
2024/01/09 04:37:31;;;;;;;5.17;3.07;;;-2.50;99.90;;;;;;5023398;28;20195;-52
2024/01/09 04:39:57;;;;;;;8.60;4.00;;;-2.50;99.90;;;;;;5022195;28;20228;-47
2024/01/09 04:42:23;;;;;;;7.93;3.33;;;-2.50;99.90;;;;;;5022657;28;20192;-49
2024/01/09 04:44:49;;;;;;;7.93;3.90;;;-2.50;99.90;;;;;;5022309;28;20624;-48
2024/01/09 04:47:18;;;;;;;4.33;3.43;;;-2.50;99.90;;;;;;5019793;28;20656;-47
2024/01/09 04:49:43;;;;;;;6.43;3.73;;;-2.50;99.90;;;;;;5021778;28;20281;-50
2024/01/09 04:52:09;;;;;;;7.23;3.97;;;-2.50;99.90;;;;;;5022768;28;20602;-54
2024/01/09 04:54:35;;;;;;;7.40;4.10;;;-2.50;99.90;;;;;;5022256;28;20184;-49
2024/01/09 04:57:01;;;;;;;7.53;3.87;;;-2.60;99.90;;;;;;5019861;28;20196;-48
2024/01/09 04:59:27;;;;;;;7.43;4.17;;;-2.60;99.90;;;;;;5021987;28;20242;-45
2024/01/09 05:01:53;;;;;;;5.23;3.97;;;-2.60;99.90;;;;;;5013507;28;20223;-46
2024/01/09 05:04:20;;;;;;;6.30;4.10;;;-2.60;99.90;;;;;;5022346;28;20200;-48
2024/01/09 05:06:45;;;;;;;7.17;3.80;;;-2.60;99.90;;;;;;5022075;28;20192;-47
2024/01/09 05:09:12;;;;;;;7.20;3.93;;;-2.60;99.90;;;;;;5022068;28;20536;-48
2024/01/09 05:11:38;;;;;;;10.43;3.80;;;-2.60;99.90;;;;;;5021843;28;20195;-40
2024/01/09 05:14:04;;;;;;;8.77;4.30;;;-2.60;99.90;;;;;;5021918;28;20238;-45
2024/01/09 05:16:29;;;;;;;10.23;4.07;;;-2.60;99.90;;;;;;5022188;28;20212;-46
2024/01/09 05:18:55;;;;;;;6.57;4.33;;;-2.60;99.90;;;;;;5021936;28;20218;-48
2024/01/09 05:21:21;;;;;;;7.03;3.63;;;-2.70;99.90;;;;;;5022100;28;20190;-44
2024/01/09 05:23:47;;;;;;;6.60;4.07;;;-2.60;99.90;;;;;;5021752;28;20188;-48
2024/01/09 05:26:13;;;;;;;6.73;3.53;;;-2.70;99.90;;;;;;5022142;28;20195;-46
2024/01/09 05:28:39;;;;;;;9.03;3.97;;;-2.70;99.90;;;;;;5015562;28;20409;-52
2024/01/09 05:31:05;;;;;;;7.70;4.20;;;-2.70;99.90;;;;;;5021999;28;20187;-47
2024/01/09 05:33:35;;;;;;;6.30;3.60;;;-2.70;99.90;;;;;;5021663;28;20199;-48
2024/01/09 05:36:02;;;;;;;6.53;4.00;;;-2.70;99.90;;;;;;5021825;28;20315;-50
2024/01/09 05:38:28;;;;;;;5.73;3.40;;;-2.70;99.90;;;;;;5001229;28;20212;-42
2024/01/09 05:40:54;;;;;;;7.37;3.47;;;-2.70;99.90;;;;;;5015595;28;20573;-47
2024/01/09 05:43:20;;;;;;;9.77;4.30;;;-2.80;99.90;;;;;;5015353;28;20184;-44
2024/01/09 05:45:46;;;;;;;7.60;4.20;;;-2.70;99.90;;;;;;5018438;28;20682;-44
2024/01/09 05:48:12;;;;;;;5.20;3.30;;;-2.80;99.90;;;;;;5021414;28;20491;-43
2024/01/09 05:50:38;;;;;;;6.77;4.03;;;-2.80;99.90;;;;;;5021425;28;20250;-50
2024/01/09 05:53:04;;;;;;;7.37;3.90;;;-2.80;99.90;;;;;;5002203;28;20195;-46
2024/01/09 05:55:30;;;;;;;7.93;4.10;;;-2.80;99.90;;;;;;5021523;28;20203;-46
2024/01/09 05:57:56;;;;;;;7.60;3.60;;;-2.80;99.90;;;;;;5019560;28;20661;-50
2024/01/09 06:00:22;;;;;;;10.33;4.40;;;-2.80;99.90;;;;;;5019943;28;21540;-38
2024/01/09 06:02:48;;;;;;;7.13;4.30;;;-2.80;99.90;;;;;;5020058;28;20278;-45
2024/01/09 06:05:14;;;;;;;6.73;4.30;;;-2.80;99.90;;;;;;5022008;28;20194;-44
2024/01/09 06:07:40;;;;;;;8.57;4.67;;;-2.80;99.90;;;;;;5021266;28;20207;-45
2024/01/09 06:10:06;;;;;;;7.67;4.03;;;-2.80;99.90;;;;;;5012421;28;20237;-43
2024/01/09 06:12:32;;;;;;;8.00;4.00;;;-2.80;99.90;;;;;;5020191;28;20199;-51
2024/01/09 06:14:58;;;;;;;9.07;4.20;;;-2.80;99.90;;;;;;5020766;28;20188;-45
2024/01/09 06:17:23;;;;;;;7.47;4.27;;;-2.80;99.90;;;;;;5014360;28;20196;-43
2024/01/09 06:19:49;;;;;;;5.90;3.60;;;-2.80;99.90;;;;;;5020400;28;20389;-45
2024/01/09 06:22:16;;;;;;;8.53;4.03;;;-2.80;99.90;;;;;;5020672;28;20195;-47
2024/01/09 06:24:42;;;;;;;6.70;3.93;;;-2.90;99.90;;;;;;5003280;28;20226;-54
2024/01/09 06:27:08;;;;;;;7.33;4.10;;;-2.90;99.90;;;;;;5017224;28;20304;-49
2024/01/09 06:29:34;;;;;;;9.33;4.10;;;-2.90;99.90;;;;;;4999364;28;20200;-47
2024/01/09 06:32:00;;;;;;;9.97;4.17;;;-2.90;99.90;;;;;;4984728;28;20204;-50
2024/01/09 06:34:26;;;;;;;6.80;4.17;;;-2.90;99.90;;;;;;5020611;28;20330;-43
2024/01/09 06:36:52;;;;;;;8.73;4.90;;;-2.90;99.90;;;;;;5003399;28;20196;-47
2024/01/09 06:39:18;;;;;;;6.13;3.97;;;-2.90;99.90;;;;;;5020941;28;20341;-47
2024/01/09 06:41:44;;;;;;;9.10;4.33;;;-2.90;99.90;;;;;;4996889;28;20238;-50
2024/01/09 06:44:11;;;;;;;9.57;4.33;;;-2.90;99.90;;;;;;5020405;28;20633;-50
2024/01/09 06:46:37;;;;;;;7.07;4.37;;;-2.90;99.90;;;;;;5020892;28;20671;-44
2024/01/09 06:49:03;;;;;;;8.87;4.23;;;-2.90;99.90;;;;;;5020467;28;20204;-46
2024/01/09 06:51:30;;;;;;;7.80;4.70;;;-2.90;99.90;;;;;;5020526;28;20229;-47
2024/01/09 06:53:56;;;;;;;6.83;3.90;;;-2.90;99.90;;;;;;5013054;28;20230;-49
2024/01/09 06:56:22;;;;;;;6.23;4.07;;;-2.90;99.90;;;;;;4999708;28;20565;-44
2024/01/09 06:58:48;;;;;;;7.43;4.17;;;-2.90;99.90;;;;;;5013898;28;21354;-52
2024/01/09 07:01:14;;;;;;;8.87;4.47;;;-2.90;99.90;;;;;;4984020;28;20192;-49
2024/01/09 07:03:40;;;;;;;6.83;4.10;;;-2.90;99.90;;;;;;5016112;28;20203;-44
2024/01/09 07:06:06;;;;;;;6.03;4.07;;;-2.90;99.90;;;;;;5016983;28;20207;-53
2024/01/09 07:08:32;;;;;;;8.40;4.60;;;-2.90;99.90;;;;;;5014072;28;20214;-48
2024/01/09 07:10:58;;;;;;;7.63;4.70;;;-2.90;99.90;;;;;;5012946;28;20287;-46
2024/01/09 07:13:24;;;;;;;7.33;4.57;;;-2.90;99.90;;;;;;5021346;28;20618;-48
2024/01/09 07:15:50;;;;;;;8.60;4.80;;;-2.90;99.90;;;;;;5020348;28;20558;-47
2024/01/09 07:18:16;;;;;;;7.03;4.10;;;-2.80;99.90;;;;;;5020892;28;20314;-41
2024/01/09 07:20:43;;;;;;;7.33;4.57;;;-2.80;99.90;;;;;;5023914;28;20199;-41
2024/01/09 07:23:09;;;;;;;7.73;4.47;;;-2.90;99.90;;;;;;5024198;28;20196;-43
2024/01/09 07:25:35;;;;;;;7.30;4.17;;;-2.90;99.90;;;;;;5023382;28;20184;-48
2024/01/09 07:28:01;;;;;;;5.23;3.20;;;-2.90;99.90;;;;;;5023216;28;20233;-45
2024/01/09 07:30:27;;;;;;;6.07;4.40;;;-2.90;99.90;;;;;;5022617;28;20199;-42
2024/01/09 07:32:53;;;;;;;9.50;4.83;;;-2.90;99.90;;;;;;5022864;28;20656;-47
2024/01/09 07:35:19;;;;;;;8.87;4.27;;;-2.90;99.90;;;;;;5023714;28;20192;-50
2024/01/09 07:37:45;;;;;;;7.47;4.27;;;-2.90;99.90;;;;;;5023463;28;20199;-43
2024/01/09 07:40:11;;;;;;;8.13;4.77;;;-2.90;99.90;;;;;;5023429;28;20609;-45
2024/01/09 07:42:37;;;;;;;8.40;4.93;;;-2.90;99.90;;;;;;5017712;28;20203;-49
2024/01/09 07:45:04;;;;;;;7.60;4.33;;;-2.90;99.90;;;;;;5023159;28;20230;-49
2024/01/09 07:47:30;;;;;;;8.10;4.70;;;-2.90;99.90;;;;;;4985810;28;20609;-48
2024/01/09 07:49:56;;;;;;;8.43;4.80;;;-2.90;99.90;;;;;;4974395;28;20227;-47
2024/01/09 07:52:22;;;;;;;7.80;4.57;;;-2.90;99.90;;;;;;5001976;28;20275;-51
2024/01/09 07:54:48;;;;;;;8.32;4.93;;;-2.90;99.90;;;;;;5023469;28;20187;-46
2024/01/09 07:57:15;;;;;;;9.70;5.00;;;-2.90;99.90;;;;;;5023325;28;20190;-51
2024/01/09 07:59:42;;;;;;;7.83;4.27;;;-2.90;99.90;;;;;;5018847;28;20215;-43
2024/01/09 08:02:07;;;;;;;8.90;4.37;;;-2.90;99.90;;;;;;5023138;28;20188;-53
2024/01/09 08:04:33;;;;;;;6.77;3.67;;;-2.90;99.90;;;;;;5013532;28;20840;-46
2024/01/09 08:06:59;;;;;;;8.70;5.00;;;-2.90;99.90;;;;;;5022820;28;20192;-46
2024/01/09 08:09:25;;;;;;;8.93;4.47;;;-2.80;99.90;;;;;;5022812;28;20275;-46
2024/01/09 08:11:51;;;;;;;9.07;5.20;;;-2.90;99.90;;;;;;5022810;28;20219;-42
2024/01/09 08:14:17;;;;;;;8.03;4.83;;;-2.80;99.90;;;;;;5018222;28;20195;-47
2024/01/09 08:16:43;;;;;;;10.03;5.10;;;-2.80;99.90;;;;;;4984609;28;20191;-48
2024/01/09 08:19:09;;;;;;;7.13;4.60;;;-2.80;99.90;;;;;;5018319;28;20216;-50
2024/01/09 08:21:35;;;;;;;8.60;4.33;;;-2.70;99.90;;;;;;5023087;28;20191;-43
2024/01/09 08:24:02;;;;;;;13.87;5.07;;;-2.70;99.90;;;;;;5021660;28;20184;-46
2024/01/09 08:26:29;;;;;;;10.50;4.57;;;-2.70;99.90;;;;;;5001801;28;20274;-51
2024/01/09 08:28:55;;;;;;;9.07;5.57;;;-2.70;99.90;;;;;;5001802;28;20203;-51
2024/01/09 08:31:21;;;;;;;9.00;4.40;;;-2.70;99.90;;;;;;5022738;28;20266;-52
2024/01/09 08:33:47;;;;;;;8.47;5.00;;;-2.60;99.90;;;;;;5022226;28;20192;-49
2024/01/09 08:36:14;;;;;;;9.33;5.10;;;-2.60;99.90;;;;;;5017223;28;20660;-47
2024/01/09 08:38:40;;;;;;;9.13;4.83;;;-2.50;99.90;;;;;;5022836;28;20644;-48
2024/01/09 08:41:06;;;;;;;15.83;7.10;;;-2.50;99.90;;;;;;5021724;28;20208;-48
2024/01/09 08:43:32;;;;;;;10.03;5.07;;;-2.50;99.90;;;;;;5021825;28;20273;-47
2024/01/09 08:45:58;;;;;;;7.67;4.70;;;-2.40;99.90;;;;;;5022265;28;20264;-51
2024/01/09 08:48:24;;;;;;;8.63;5.13;;;-2.40;99.90;;;;;;5022165;28;20202;-48
2024/01/09 08:50:50;;;;;;;8.90;5.33;;;-2.40;99.90;;;;;;5021965;28;20227;-53
2024/01/09 08:53:16;;;;;;;7.23;4.27;;;-2.40;99.90;;;;;;5022054;28;20199;-48
2024/01/09 08:55:42;;;;;;;10.67;5.10;;;-2.30;99.90;;;;;;5021752;28;20688;-44
2024/01/09 08:58:08;;;;;;;8.20;4.80;;;-2.30;99.90;;;;;;5022965;28;20311;-44
2024/01/09 09:00:34;;;;;;;7.43;4.43;;;-2.20;99.90;;;;;;5017675;28;20194;-44
2024/01/09 09:03:00;;;;;;;8.37;4.60;;;-2.20;99.90;;;;;;5021744;28;20192;-44
2024/01/09 09:05:26;;;;;;;10.33;4.90;;;-2.20;99.90;;;;;;5017297;28;20196;-46
2024/01/09 09:07:53;;;;;;;11.83;4.77;;;-2.20;99.90;;;;;;5021329;28;20203;-48
2024/01/09 09:10:19;;;;;;;9.45;4.68;;;-2.00;99.90;;;;;;5020815;28;20232;-50
2024/01/09 09:12:45;;;;;;;10.70;4.57;;;-2.10;99.90;;;;;;5016105;28;20320;-51
2024/01/09 09:15:11;;;;;;;7.67;4.60;;;-2.00;99.90;;;;;;5021655;28;20227;-46
2024/01/09 09:17:37;;;;;;;6.33;4.80;;;-2.00;99.90;;;;;;5020600;28;20230;-49
2024/01/09 09:20:05;;;;;;;6.85;4.25;;;-2.00;99.90;;;;;;5020841;28;20218;-46
2024/01/09 09:22:31;;;;;;;7.40;4.47;;;-2.00;99.90;;;;;;5017676;28;20192;-49
2024/01/09 09:24:58;;;;;;;6.72;4.03;;;-2.00;99.90;;;;;;5020995;28;20188;-44
2024/01/09 09:27:23;;;;;;;6.32;4.07;;;-1.90;99.90;;;;;;5021485;28;20196;-43
2024/01/09 09:29:52;;;;;;;7.03;4.20;;;-1.90;99.90;;;;;;5019906;28;20194;-44
2024/01/09 09:32:18;;;;;;;10.77;4.45;;;-1.90;99.90;;;;;;5020823;28;20207;-47
2024/01/09 09:34:44;;;;;;;6.68;4.07;;;-1.80;99.90;;;;;;5016926;28;20188;-45
2024/01/09 09:37:11;;;;;;;8.57;4.35;;;-1.80;99.90;;;;;;5021352;28;20652;-47
2024/01/09 09:39:37;;;;;;;7.90;4.10;;;-1.70;99.90;;;;;;5020533;28;20227;-48
2024/01/09 09:42:03;;;;;;;6.10;3.58;;;-1.70;99.90;;;;;;5021231;28;21254;-48
2024/01/09 09:44:29;;;;;;;9.27;4.00;;;-1.60;99.90;;;;;;5021110;28;20214;-48
2024/01/09 09:46:58;;;;;;;5.77;4.10;;;-1.60;99.90;;;;;;5021151;28;20226;-47
2024/01/09 09:49:23;;;;;;;5.30;3.47;;;-1.60;99.90;;;;;;5000493;28;20211;-47
2024/01/09 09:51:51;;;;;;;7.40;3.85;;;-1.50;99.90;;;;;;4998613;28;20958;-51
2024/01/09 09:54:19;;;;;;;7.80;3.60;;;-1.50;99.90;;;;;;5020982;28;20184;-48
2024/01/09 09:56:45;;;;;;;7.40;3.80;;;-1.40;99.90;;;;;;5021357;28;21191;-48
2024/01/09 09:59:12;;;;;;;6.55;3.85;;;-1.30;99.90;;;;;;5021014;28;20204;-47
2024/01/09 10:01:40;;;;;;;8.35;3.90;;;-1.30;99.90;;;;;;5021049;28;20561;-44
2024/01/09 10:04:18;;;;;;;6.77;3.87;;;-1.30;99.90;;;;;;5019985;28;20184;-42
2024/01/09 10:06:46;;;;;;;4.45;3.17;;;-1.20;99.90;;;;;;5021064;28;20198;-48
2024/01/09 10:09:15;;;;;;;6.85;3.90;;;-1.20;99.90;;;;;;5020845;28;20188;-41
2024/01/09 10:11:41;;;;;;;6.88;3.72;;;-1.10;99.90;;;;;;5014690;28;20282;-43
2024/01/09 10:14:09;;;;;;;4.82;2.85;;;-1.10;99.90;;;;;;5020886;28;20294;-41
2024/01/09 10:16:55;;;;;;;8.02;3.80;;;-1.00;99.90;;;;;;5021360;28;20199;-44
2024/01/09 10:19:24;;;;;;;7.28;3.90;;;-1.00;99.90;;;;;;5016625;28;20230;-47
2024/01/09 10:21:51;;;;;;;6.20;3.05;;;-1.00;99.90;;;;;;5020932;28;20261;-49
2024/01/09 10:24:17;;;;;;;5.75;3.60;;;-0.90;99.90;;;;;;5020994;28;20184;-43
2024/01/09 10:26:43;;;;;;;6.45;3.30;;;-0.90;99.90;;;;;;5020903;28;20195;-46
2024/01/09 10:29:13;;;;;;;4.75;3.22;;;-0.80;99.90;;;;;;5020388;28;20220;-46
2024/01/09 10:31:44;;;;;;;8.30;3.85;;;-0.80;99.90;;;;;;5014558;28;20191;-50
2024/01/09 10:34:10;;;;;;;9.45;4.50;;;-0.80;99.90;;;;;;5016060;28;20196;-47
2024/01/09 10:36:36;;;;;;;6.05;3.72;;;-0.70;99.90;;;;;;5015593;28;20207;-40
2024/01/09 10:39:06;;;;;;;4.13;2.75;;;-0.60;99.90;;;;;;5019833;28;20230;-50
2024/01/09 10:41:32;;;;;;;5.38;3.60;;;-0.60;99.90;;;;;;5019698;28;20179;-49
2024/01/09 10:44:05;;;;;;;10.32;3.05;;;-0.50;99.90;;;;;;5014100;28;20611;-45
2024/01/09 10:46:33;;;;;;;5.53;3.20;;;-0.50;99.90;;;;;;5020423;28;20196;-49
2024/01/09 10:49:00;;;;;;;4.63;3.35;;;-0.40;99.90;;;;;;5023168;28;20176;-45
2024/01/09 10:51:28;;;;;;;5.80;3.40;;;-0.40;99.90;;;;;;5006467;28;20263;-46
2024/01/09 10:53:57;;;;;;;5.30;2.90;;;-0.40;99.90;;;;;;4983522;28;20203;-47
2024/01/09 10:56:23;;;;;;;4.47;3.03;;;-0.30;99.90;;;;;;5024212;28;20184;-50
2024/01/09 10:58:50;;;;;;;5.22;3.22;;;-0.30;99.90;;;;;;4987991;28;20247;-49
2024/01/09 11:01:16;;;;;;;6.40;3.65;;;-0.40;99.90;;;;;;4989956;28;20192;-52
2024/01/09 11:03:43;;;;;;;5.78;3.63;;;-0.30;99.90;;;;;;5006171;28;20180;-50
2024/01/09 11:06:09;;;;;;;6.00;3.42;;;-0.30;99.90;;;;;;5017063;28;20179;-39
2024/01/09 11:08:37;;;;;;;5.20;3.03;;;-0.30;99.90;;;;;;5023891;28;20271;-49
2024/01/09 11:11:14;;;;;;;7.55;3.60;;;-0.20;99.90;;;;;;5023905;28;20204;-44
2024/01/09 11:13:46;;;;;;;5.30;3.40;;;-0.20;99.90;;;;;;5023132;28;20699;-39
2024/01/09 11:16:15;;;;;;;5.50;3.30;;;-0.20;99.90;;;;;;5008048;28;20196;-51
2024/01/09 11:18:44;;;;;;;5.07;3.20;;;-0.20;99.90;;;;;;5023690;28;20609;-44
2024/01/09 11:21:11;;;;;;;5.25;3.45;;;-0.10;99.90;;;;;;5024189;28;20271;-43
2024/01/09 11:23:43;;;;;;;5.55;3.00;;;-0.10;99.90;;;;;;5020030;28;20188;-43
2024/01/09 11:26:12;;;;;;;4.20;3.17;;;0.00;99.90;;;;;;5023822;28;20287;-43
2024/01/09 11:28:41;;;;;;;5.57;3.60;;;-0.10;99.90;;;;;;5019214;28;20720;-48
2024/01/09 11:31:08;;;;;;;6.68;3.28;;;0.00;99.90;;;;;;5023611;28;20594;-49
2024/01/09 11:33:34;;;;;;;6.13;2.63;;;0.10;99.90;;;;;;5022706;28;20577;-44
2024/01/09 11:36:06;;;;;;;5.85;3.60;;;0.00;99.90;;;;;;5001998;28;20241;-45
2024/01/09 11:38:33;;;;;;;4.05;3.00;;;0.10;99.90;;;;;;5002724;28;20268;-49
2024/01/09 11:41:06;;;;;;;5.28;3.20;;;0.10;99.90;;;;;;5018692;28;20293;-46
2024/01/09 11:43:58;;;;;;;6.05;3.75;;;0.20;99.90;;;;;;5022921;28;20274;-42
2024/01/09 11:46:24;;;;;;;5.90;3.63;;;0.20;99.90;;;;;;5022635;28;20617;-48
2024/01/09 11:48:50;;;;;;;4.22;2.70;;;0.20;99.90;;;;;;5016613;28;20188;-56
2024/01/09 11:51:17;;;;;;;5.40;3.40;;;0.20;99.90;;;;;;5017357;28;20281;-46
2024/01/09 11:53:43;;;;;;;6.80;3.78;;;0.20;99.90;;;;;;5022873;28;20183;-46
2024/01/09 11:56:13;;;;;;;4.50;3.35;;;0.30;99.90;;;;;;5023169;28;20626;-46
2024/01/09 11:58:41;;;;;;;4.13;3.15;;;0.30;99.90;;;;;;5005195;28;20204;-45
2024/01/09 12:01:07;;;;;;;7.15;3.38;;;0.40;99.90;;;;;;5000392;28;20679;-49
2024/01/09 12:03:33;;;;;;;6.50;4.40;;;0.40;99.90;;;;;;5022741;28;20211;-45
2024/01/09 12:06:01;;;;;;;4.40;3.13;;;0.40;99.90;;;;;;5022840;28;20188;-50
2024/01/09 12:08:28;;;;;;;7.80;3.20;;;0.40;99.90;;;;;;5022672;28;20656;-46
2024/01/09 12:10:54;;;;;;;7.15;4.07;;;0.40;99.90;;;;;;5022608;28;20196;-44
2024/01/09 12:13:20;;;;;;;5.97;3.97;;;0.40;99.90;;;;;;5021540;28;20958;-46
2024/01/09 12:15:46;;;;;;;5.00;3.58;;;0.40;99.90;;;;;;5017493;28;20664;-44
2024/01/09 12:18:12;;;;;;;5.25;4.00;;;0.50;99.90;;;;;;5022682;28;20230;-49
2024/01/09 12:20:39;;;;;;;6.05;3.67;;;0.60;99.90;;;;;;5015833;28;20652;-48
2024/01/09 12:23:05;;;;;;;8.02;4.22;;;0.60;99.90;;;;;;5022895;28;20698;-43
2024/01/09 12:25:31;;;;;;;8.75;4.50;;;0.60;99.90;;;;;;5022261;28;20256;-48
2024/01/09 12:27:59;;;;;;;7.55;4.78;;;0.70;99.90;;;;;;5002633;28;20196;-46
2024/01/09 12:30:25;;;;;;;9.25;5.30;;;0.60;99.90;;;;;;5017992;28;20616;-49
2024/01/09 12:32:53;;;;;;;7.28;4.78;;;0.70;99.90;;;;;;5022053;28;20254;-50
2024/01/09 12:35:20;;;;;;;9.07;5.22;;;0.70;99.90;;;;;;5018582;28;20184;-41
2024/01/09 12:37:47;;;;;;;11.05;5.10;;;0.80;99.90;;;;;;5022200;28;20237;-53
2024/01/09 12:40:16;;;;;;;9.10;5.40;;;0.80;99.90;;;;;;5021630;28;20254;-51
2024/01/09 12:42:42;;;;;;;7.45;4.78;;;0.80;99.90;;;;;;5022079;28;20195;-47
2024/01/09 12:45:12;;;;;;;10.55;5.57;;;0.80;99.90;;;;;;5016049;28;20649;-48